Time;durP1;ratioP1;P1;durP2;ratioP2;P2;SDS_P1;SDS_P2;PMS_P1;PMS_P2;Temp;Humidity;BMP_temperature;BMP_pressure;BME280_temperature;BME280_humidity;BME280_pressure;Samples;Min_cycle;Max_cycle;Signal;HPM_P1;HPM_P2
2023/09/13 00:01:47;;;;;;;12.52;10.00;;;20.30;1.00;;;;;;10478928;28;20437;-79
2023/09/13 00:07:08;;;;;;;13.30;10.00;;;20.20;99.90;;;;;;10478521;28;20516;-80
2023/09/13 00:12:29;;;;;;;15.05;10.07;;;20.10;1.00;;;;;;10491446;28;20187;-79
2023/09/13 00:17:51;;;;;;;14.52;11.55;;;20.10;99.90;;;;;;10463734;28;20195;-81
2023/09/13 00:23:13;;;;;;;12.73;10.85;;;20.10;99.90;;;;;;10471528;28;20199;-79
2023/09/13 00:28:35;;;;;;;14.82;10.85;;;20.10;1.00;;;;;;10462984;28;20495;-79
2023/09/13 00:33:56;;;;;;;14.25;11.55;;;20.10;1.00;;;;;;10482962;28;20212;-79
2023/09/13 00:39:17;;;;;;;20.98;12.00;;;20.00;1.00;;;;;;10477181;28;20219;-79
2023/09/13 00:44:38;;;;;;;15.80;12.20;;;19.90;99.90;;;;;;10462298;28;20375;-79
2023/09/13 00:50:00;;;;;;;14.93;11.50;;;19.90;99.90;;;;;;10462844;28;20200;-78
2023/09/13 00:55:22;;;;;;;16.17;12.35;;;19.90;93.90;;;;;;10488758;28;20376;-78
2023/09/13 01:00:45;;;;;;;16.63;12.32;;;19.90;20.80;;;;;;10488238;28;20284;-79
2023/09/13 01:13:19;;;;;;;20.33;13.23;;;19.70;1.00;;;;;;10483394;28;20409;-79
2023/09/13 01:19:19;;;;;;;16.00;11.50;;;19.70;99.90;;;;;;10479927;28;20246;-79
2023/09/13 01:24:49;;;;;;;14.40;11.48;;;19.70;1.00;;;;;;10484630;28;20192;-79
2023/09/13 01:30:12;;;;;;;14.60;12.35;;;19.70;99.90;;;;;;10488746;28;20204;-79
2023/09/13 01:42:05;;;;;;;17.02;13.15;;;19.70;1.00;;;;;;10479623;28;20265;-79
2023/09/13 01:47:29;;;;;;;20.52;14.90;;;19.60;1.00;;;;;;10483574;28;20192;-79
2023/09/13 01:52:50;;;;;;;18.15;14.70;;;19.50;1.00;;;;;;10501732;28;20202;-79
2023/09/13 01:58:11;;;;;;;16.00;13.38;;;;;;;;;;10516439;28;20253;-79
2023/09/13 02:03:32;;;;;;;18.60;14.90;;;19.00;1.00;;;;;;10483022;28;20206;-79
2023/09/13 02:14:14;;;;;;;15.32;13.23;;;19.00;99.90;;;;;;10523131;28;20211;-79
2023/09/13 02:19:36;;;;;;;17.30;13.88;;;;;;;;;;10486996;28;20277;-79
2023/09/13 02:24:57;;;;;;;17.00;14.23;;;19.10;1.00;;;;;;10522990;28;20195;-80
2023/09/13 02:30:18;;;;;;;15.70;13.00;;;19.10;1.00;;;;;;10483971;28;20536;-79
2023/09/13 02:35:39;;;;;;;15.23;11.82;;;19.10;1.00;;;;;;10482579;28;20196;-79
2023/09/13 02:41:00;;;;;;;14.27;11.82;;;19.10;99.90;;;;;;10481560;28;20216;-79
2023/09/13 02:46:21;;;;;;;12.88;9.68;;;19.10;99.90;;;;;;10497894;28;20290;-78
2023/09/13 02:51:43;;;;;;;12.98;9.82;;;19.00;1.00;;;;;;10476677;28;20202;-79
2023/09/13 02:57:05;;;;;;;12.00;10.55;;;18.90;1.00;;;;;;10506170;28;20283;-79
2023/09/13 03:02:27;;;;;;;10.90;9.45;;;18.90;1.00;;;;;;10480347;28;20251;-79
2023/09/13 03:07:48;;;;;;;12.07;10.73;;;18.90;1.00;;;;;;10480186;28;20467;-79
2023/09/13 03:13:10;;;;;;;10.93;9.50;;;18.90;1.00;;;;;;10517050;28;20194;-78
2023/09/13 03:18:34;;;;;;;12.85;11.02;;;19.00;4.70;;;;;;10478599;28;20218;-79
2023/09/13 03:40:47;;;;;;;10.70;8.80;;;18.70;1.00;;;;;;10544694;28;20229;-79
2023/09/13 03:46:09;;;;;;;9.32;8.43;;;18.70;1.00;;;;;;10530320;28;20370;-79
2023/09/13 03:51:31;;;;;;;11.60;8.07;;;18.70;1.00;;;;;;10545455;28;20202;-80
2023/09/13 03:56:52;;;;;;;10.38;7.78;;;18.70;99.90;;;;;;10519677;28;20197;-79
2023/09/13 04:02:14;;;;;;;8.80;7.90;;;18.60;1.00;;;;;;10478269;28;20315;-79
2023/09/13 04:07:35;;;;;;;8.75;7.85;;;18.60;1.00;;;;;;10478046;28;20275;-79
2023/09/13 04:12:56;;;;;;;9.65;8.02;;;18.70;1.00;;;;;;10488575;28;20259;-79
2023/09/13 04:18:18;;;;;;;8.48;7.55;;;18.70;99.90;;;;;;10505079;28;20195;-79
2023/09/13 04:23:39;;;;;;;7.82;7.05;;;18.70;1.00;;;;;;10480950;28;20200;-79
2023/09/13 04:29:00;;;;;;;7.45;6.60;;;18.60;1.00;;;;;;10484537;28;20403;-79
2023/09/13 04:34:21;;;;;;;6.63;5.93;;;18.60;99.90;;;;;;10491815;28;20209;-79
2023/09/13 04:39:43;;;;;;;7.88;7.07;;;18.60;99.90;;;;;;10500690;28;20445;-80
2023/09/13 04:45:08;;;;;;;8.05;7.22;;;18.50;1.00;;;;;;10504096;28;20225;-80
2023/09/13 04:50:49;;;;;;;8.18;6.80;;;18.60;99.90;;;;;;10517415;28;20230;-79
2023/09/13 04:56:10;;;;;;;7.45;6.20;;;18.60;1.00;;;;;;10494263;28;20194;-79
2023/09/13 05:01:37;;;;;;;7.07;6.05;;;18.60;1.00;;;;;;10470262;28;20247;-79
2023/09/13 05:07:00;;;;;;;6.53;5.90;;;18.60;1.00;;;;;;10476163;28;20234;-79
2023/09/13 05:17:41;;;;;;;11.63;9.60;;;18.80;1.00;;;;;;10517843;28;20410;-80
2023/09/13 05:23:04;;;;;;;11.05;9.93;;;18.80;1.00;;;;;;10520425;28;20223;-78
2023/09/13 05:28:33;;;;;;;12.50;8.48;;;18.90;99.90;;;;;;10479170;28;20192;-78
2023/09/13 05:33:54;;;;;;;11.07;8.00;;;19.10;99.90;;;;;;10505682;28;20202;-78
2023/09/13 05:39:15;;;;;;;10.95;7.65;;;19.20;75.10;;;;;;10526847;28;20242;-79
2023/09/13 05:44:36;;;;;;;7.18;6.45;;;19.50;1.00;;;;;;10479265;28;20196;-79
2023/09/13 05:49:57;;;;;;;7.68;6.82;;;19.60;26.80;;;;;;10476130;28;20206;-78
2023/09/13 05:55:18;;;;;;;14.27;9.63;;;19.70;1.00;;;;;;10477634;28;20215;-79
2023/09/13 06:00:46;;;;;;;12.02;8.50;;;19.70;99.90;;;;;;10477927;28;20314;-79
2023/09/13 06:06:10;;;;;;;13.68;9.57;;;19.70;1.00;;;;;;10545908;28;20191;-79
2023/09/13 06:11:31;;;;;;;11.18;7.70;;;19.70;99.90;;;;;;10519009;28;20280;-79
2023/09/13 06:16:52;;;;;;;15.85;9.65;;;19.70;1.00;;;;;;10515205;28;20195;-79
2023/09/13 06:22:14;;;;;;;14.25;10.13;;;19.90;99.90;;;;;;10518740;28;20211;-79
2023/09/13 06:27:34;;;;;;;11.95;9.52;;;20.10;55.10;;;;;;10497353;28;20307;-80
2023/09/13 06:32:56;;;;;;;14.32;10.48;;;20.40;1.00;;;;;;10482942;28;20247;-79
2023/09/13 06:38:26;;;;;;;12.80;8.63;;;20.70;99.90;;;;;;10504106;28;20196;-79
2023/09/13 06:43:47;;;;;;;11.50;7.93;;;21.50;1.00;;;;;;10481784;28;20266;-80
2023/09/13 06:49:22;;;;;;;9.90;6.97;;;21.70;99.90;;;;;;10484923;28;20541;-80
2023/09/13 06:54:43;;;;;;;11.05;7.82;;;21.70;99.90;;;;;;10510695;28;20199;-79
2023/09/13 07:00:08;;;;;;;23.55;10.55;;;21.70;99.90;;;;;;10482447;28;20289;-79
2023/09/13 07:05:32;;;;;;;12.63;8.65;;;21.60;1.00;;;;;;10550444;28;20206;-89
2023/09/13 07:10:53;;;;;;;14.90;8.38;;;21.60;1.00;;;;;;10414971;28;20240;-81
2023/09/13 07:16:14;;;;;;;16.08;9.50;;;21.90;1.00;;;;;;10433213;28;20259;-81
2023/09/13 07:21:35;;;;;;;18.73;15.43;;;22.10;1.00;;;;;;10434397;28;20572;-81
2023/09/13 07:26:57;;;;;;;19.40;12.93;;;22.00;1.00;;;;;;10435781;28;20204;-80
2023/09/13 07:32:18;;;;;;;17.35;13.02;;;21.90;1.00;;;;;;10430763;28;20204;-80
2023/09/13 07:37:40;;;;;;;18.50;11.38;;;22.50;1.00;;;;;;10451489;28;20213;-77
2023/09/13 07:43:02;;;;;;;18.45;11.32;;;24.00;99.90;;;;;;10462266;28;20224;-80
2023/09/13 07:48:26;;;;;;;16.38;11.85;;;25.50;1.00;;;;;;10432076;28;20212;-79
2023/09/13 07:53:48;;;;;;;17.70;11.18;;;;;;;;;;10414571;28;20229;-79
2023/09/13 07:59:14;;;;;;;21.45;11.13;;;;;;;;;;10435669;28;20470;-78
2023/09/13 08:04:35;;;;;;;14.95;10.93;;;27.40;99.90;;;;;;10443506;28;20197;-80
2023/09/13 08:09:57;;;;;;;23.52;11.32;;;28.20;99.90;;;;;;10398493;28;20721;-80
2023/09/13 08:15:18;;;;;;;20.00;11.90;;;28.80;99.90;;;;;;10389842;28;20247;-80
2023/09/13 08:20:43;;;;;;;21.08;11.05;;;;;;;;;;10455186;28;20535;-83
2023/09/13 08:26:05;;;;;;;18.40;11.10;;;28.60;99.90;;;;;;10452444;28;20275;-83
2023/09/13 08:31:36;;;;;;;19.52;11.75;;;27.90;99.90;;;;;;10414134;28;20196;-80
2023/09/13 08:36:58;;;;;;;24.50;12.13;;;26.60;99.90;;;;;;10417816;28;20255;-80
2023/09/13 08:42:19;;;;;;;31.75;15.93;;;26.10;99.90;;;;;;10395129;28;20283;-79
2023/09/13 08:47:44;;;;;;;20.23;12.18;;;26.60;99.90;;;;;;10429088;28;20197;-80
2023/09/13 08:53:16;;;;;;;16.55;9.90;;;27.90;99.90;;;;;;10445310;28;20446;-80
2023/09/13 08:58:38;;;;;;;18.55;10.80;;;29.30;99.90;;;;;;10456401;28;20236;-87
2023/09/13 09:04:19;;;;;;;12.77;11.48;;;28.80;99.90;;;;;;10417780;28;20228;-80
2023/09/13 09:09:42;;;;;;;16.60;10.15;;;27.70;99.90;;;;;;10407239;28;20547;-84
2023/09/13 09:21:35;;;;;;;14.65;10.70;;;27.00;99.90;;;;;;10388518;28;20240;-80
2023/09/13 09:26:56;;;;;;;13.85;11.57;;;26.50;99.90;;;;;;10409945;28;20461;-81
2023/09/13 09:32:18;;;;;;;16.77;11.48;;;25.90;99.90;;;;;;10392840;28;20216;-83
2023/09/13 09:37:39;;;;;;;14.13;11.10;;;25.50;99.90;;;;;;10403371;28;20436;-83
2023/09/13 09:43:00;;;;;;;16.25;13.18;;;25.20;1.00;;;;;;10463573;28;20312;-84
2023/09/13 09:48:22;;;;;;;19.00;12.70;;;25.30;1.00;;;;;;10435244;28;20220;-80
2023/09/13 09:53:45;;;;;;;16.35;12.20;;;25.70;1.00;;;;;;10436689;28;20192;-81
2023/09/13 09:59:06;;;;;;;25.92;10.80;;;27.30;1.00;;;;;;10434493;28;20244;-80
2023/09/13 10:04:28;;;;;;;15.43;11.82;;;28.10;1.00;;;;;;10435811;28;20204;-82
2023/09/13 10:09:49;;;;;;;20.27;12.75;;;27.60;1.00;;;;;;10419768;28;20214;-82
2023/09/13 10:15:11;;;;;;;11.35;10.05;;;26.90;1.00;;;;;;10405994;28;20272;-79
2023/09/13 10:20:34;;;;;;;11.57;10.20;;;26.20;99.90;;;;;;10442144;28;20232;-84
2023/09/13 10:26:00;;;;;;;12.73;10.43;;;25.60;99.90;;;;;;10420005;28;20207;-86
2023/09/13 10:31:27;;;;;;;15.43;11.00;;;25.40;99.90;;;;;;10421288;28;20208;-84
2023/09/13 10:37:11;;;;;;;13.57;11.15;;;25.20;99.90;;;;;;10449358;28;20216;-84
2023/09/13 10:42:33;;;;;;;13.07;10.82;;;25.20;99.90;;;;;;10417220;28;20235;-81
2023/09/13 10:47:55;;;;;;;11.20;9.85;;;25.20;99.90;;;;;;10426168;28;20197;-81
2023/09/13 10:53:17;;;;;;;11.63;10.18;;;25.40;99.90;;;;;;10448805;28;20220;-79
2023/09/13 10:58:40;;;;;;;15.00;10.95;;;25.80;99.90;;;;;;10436114;28;20242;-84
2023/09/13 11:04:04;;;;;;;14.18;10.50;;;27.30;99.90;;;;;;10412765;28;20242;-83
2023/09/13 11:09:26;;;;;;;14.95;10.73;;;29.10;99.90;;;;;;10434667;28;20397;-82
2023/09/13 11:14:50;;;;;;;12.18;10.00;;;30.00;99.90;;;;;;10433301;28;20208;-80
2023/09/13 11:20:29;;;;;;;14.68;9.80;;;29.50;99.90;;;;;;10466386;28;20207;-83
2023/09/13 11:25:53;;;;;;;11.05;7.53;;;29.00;99.90;;;;;;10417478;28;20204;-83
2023/09/13 11:31:17;;;;;;;9.15;5.68;;;29.90;99.90;;;;;;10434390;28;20200;-83
2023/09/13 11:36:53;;;;;;;10.68;6.15;;;30.00;99.90;;;;;;10417609;28;20424;-83
2023/09/13 11:42:14;;;;;;;8.68;6.82;;;29.00;99.90;;;;;;10461720;28;20217;-82
2023/09/13 11:47:50;;;;;;;8.75;5.72;;;28.10;99.90;;;;;;10394678;28;20190;-86
2023/09/13 11:53:14;;;;;;;5.50;5.00;;;27.50;99.90;;;;;;10436507;28;20557;-81
2023/09/13 11:58:38;;;;;;;36.28;7.03;;;27.00;99.90;;;;;;10459141;28;20581;-81
2023/09/13 12:04:07;;;;;;;6.75;4.93;;;26.40;99.90;;;;;;10425755;28;20463;-81
2023/09/13 12:09:31;;;;;;;9.90;4.95;;;26.10;99.90;;;;;;10445943;28;20211;-83
2023/09/13 12:15:01;;;;;;;7.72;4.97;;;25.90;1.00;;;;;;10397571;28;20499;-81
2023/09/13 12:20:24;;;;;;;9.85;5.60;;;25.90;1.00;;;;;;10434677;28;20227;-83
2023/09/13 12:25:46;;;;;;;7.35;5.30;;;25.90;1.00;;;;;;10455965;28;20204;-87
2023/09/13 12:31:10;;;;;;;10.07;5.55;;;26.00;1.00;;;;;;10418035;28;20196;-82
2023/09/13 12:36:33;;;;;;;8.88;4.97;;;25.90;1.00;;;;;;10421715;28;20204;-82
2023/09/13 12:41:56;;;;;;;9.77;5.35;;;25.70;1.00;;;;;;10431607;28;20284;-84
2023/09/13 12:47:17;;;;;;;21.00;6.47;;;25.40;91.60;;;;;;10425469;28;20266;-82
2023/09/13 12:52:39;;;;;;;7.60;4.18;;;;;;;;;;10409334;28;20208;-78
2023/09/13 12:58:04;;;;;;;9.23;4.47;;;;;;;;;;10461786;28;20228;-77
2023/09/13 13:03:29;;;;;;;9.57;4.00;;;;;;;;;;10460450;28;20599;-82
2023/09/13 13:08:51;;;;;;;5.82;4.55;;;;;;;;;;10417944;28;20201;-80
2023/09/13 13:14:14;;;;;;;8.38;4.70;;;;;;;;;;10407944;28;20245;-78
2023/09/13 13:19:37;;;;;;;6.85;4.70;;;;;;;;;;10435202;28;20430;-83
2023/09/13 13:25:03;;;;;;;6.50;4.30;;;;;;;;;;10432511;28;20227;-78
2023/09/13 13:30:25;;;;;;;6.82;4.47;;;;;;;;;;10398699;28;20201;-79
2023/09/13 13:35:46;;;;;;;5.10;4.28;;;23.30;1.00;;;;;;10428590;28;20283;-79
2023/09/13 13:41:11;;;;;;;8.18;6.00;;;23.30;1.00;;;;;;10465634;28;20285;-82
2023/09/13 13:46:32;;;;;;;5.80;4.75;;;23.40;81.70;;;;;;10429705;28;20203;-81
2023/09/13 13:51:54;;;;;;;17.65;8.60;;;23.50;99.90;;;;;;10423004;28;20231;-84
2023/09/13 13:57:15;;;;;;;16.45;8.75;;;23.40;99.90;;;;;;10418751;28;20213;-84
2023/09/13 14:02:37;;;;;;;19.27;11.30;;;23.70;99.90;;;;;;10466956;28;20574;-82
2023/09/13 14:07:58;;;;;;;16.02;9.98;;;24.10;1.00;;;;;;10434336;28;20192;-79
2023/09/13 14:13:21;;;;;;;8.38;6.95;;;24.20;1.00;;;;;;10434717;28;20481;-79
2023/09/13 14:18:42;;;;;;;10.95;7.80;;;24.20;1.00;;;;;;10430747;28;20212;-82
2023/09/13 14:24:04;;;;;;;11.40;6.88;;;24.10;1.00;;;;;;10437021;28;20224;-81
2023/09/13 14:29:26;;;;;;;8.90;6.40;;;24.10;1.00;;;;;;10416423;28;20205;-82
2023/09/13 14:34:52;;;;;;;8.13;7.05;;;24.10;1.00;;;;;;10459478;28;20491;-83
2023/09/13 14:40:13;;;;;;;16.75;11.98;;;24.20;1.00;;;;;;10418612;28;20227;-80
2023/09/13 14:45:35;;;;;;;10.88;8.10;;;24.40;1.00;;;;;;10407546;28;20251;-80
2023/09/13 14:50:57;;;;;;;10.27;6.90;;;24.40;1.00;;;;;;10382058;28;20251;-79
2023/09/13 14:56:18;;;;;;;6.78;5.03;;;24.40;1.00;;;;;;10433155;28;20207;-77
2023/09/13 15:01:40;;;;;;;6.03;4.53;;;24.40;1.00;;;;;;10463695;28;20251;-80
2023/09/13 15:07:07;;;;;;;7.38;4.10;;;24.60;1.00;;;;;;10442450;28;20192;-84
2023/09/13 15:12:32;;;;;;;7.20;3.85;;;24.60;1.00;;;;;;10424664;28;20207;-78
2023/09/13 15:17:53;;;;;;;4.68;4.18;;;24.50;1.00;;;;;;10423375;28;20214;-80
2023/09/13 15:23:15;;;;;;;3.40;3.00;;;24.40;1.00;;;;;;10438181;28;20566;-80
2023/09/13 15:28:36;;;;;;;37.25;26.08;;;24.10;1.00;;;;;;10435202;28;20200;-79
2023/09/13 15:33:58;;;;;;;7.28;5.40;;;23.90;1.00;;;;;;10427123;28;20196;-80
2023/09/13 15:39:20;;;;;;;8.00;5.90;;;23.70;1.00;;;;;;10435564;28;20197;-80
2023/09/13 15:44:41;;;;;;;4.88;3.50;;;23.60;1.00;;;;;;10432431;28;20216;-79
2023/09/13 15:50:03;;;;;;;3.83;3.22;;;23.50;1.00;;;;;;10467895;28;20204;-79
2023/09/13 15:55:25;;;;;;;5.18;3.67;;;23.50;1.00;;;;;;10438924;28;20200;-79
2023/09/13 16:00:47;;;;;;;4.00;3.55;;;23.30;1.00;;;;;;10427870;28;20297;-79
2023/09/13 16:06:09;;;;;;;6.53;3.35;;;23.00;1.00;;;;;;10465662;28;20207;-80
2023/09/13 16:11:31;;;;;;;3.67;3.10;;;22.60;3.00;;;;;;10423133;28;20196;-79
2023/09/13 16:16:54;;;;;;;3.75;3.17;;;;;;;;;;10464912;28;20208;-79
2023/09/13 16:22:16;;;;;;;7.65;2.90;;;;;;;;;;10396017;28;20220;-79
2023/09/13 16:27:38;;;;;;;5.82;3.38;;;;;;;;;;10419862;28;20204;-79
2023/09/13 16:33:00;;;;;;;3.97;2.95;;;;;;;;;;10458591;28;20209;-80
2023/09/13 16:38:21;;;;;;;4.25;3.28;;;21.40;99.90;;;;;;10458884;28;20200;-80
2023/09/13 16:43:43;;;;;;;4.63;2.88;;;21.20;1.00;;;;;;10436039;28;20222;-79
2023/09/13 16:49:05;;;;;;;5.75;3.60;;;;;;;;;;10395794;28;20260;-79
2023/09/13 16:54:31;;;;;;;4.68;3.60;;;;;;;;;;10452364;28;20255;-79
2023/09/13 16:59:53;;;;;;;4.07;3.45;;;;;;;;;;10436211;28;20231;-79
2023/09/13 17:05:16;;;;;;;6.57;4.13;;;;;;;;;;10462226;28;20424;-79
2023/09/13 17:10:38;;;;;;;6.20;3.63;;;;;;;;;;10449528;28;20279;-79
2023/09/13 17:15:59;;;;;;;5.13;3.67;;;;;;;;;;10421698;28;20223;-79
2023/09/13 17:21:21;;;;;;;7.68;4.55;;;;;;;;;;10411252;28;20224;-80
2023/09/13 17:26:42;;;;;;;5.13;4.20;;;20.60;1.00;;;;;;10436032;28;20200;-80
2023/09/13 17:32:05;;;;;;;8.57;4.35;;;;;;;;;;10421242;28;20202;-79
2023/09/13 17:37:28;;;;;;;6.05;4.63;;;;;;;;;;10466865;28;20391;-80
2023/09/13 17:42:50;;;;;;;7.15;5.57;;;;;;;;;;10448280;28;20234;-79
2023/09/13 17:48:12;;;;;;;9.80;5.88;;;;;;;;;;10414187;28;20427;-79
2023/09/13 17:53:34;;;;;;;9.88;6.50;;;;;;;;;;10447062;28;20208;-79
2023/09/13 17:58:56;;;;;;;9.85;7.30;;;;;;;;;;10465278;28;20557;-80
2023/09/13 18:04:18;;;;;;;8.52;7.65;;;;;;;;;;10436551;28;20232;-79
2023/09/13 18:09:40;;;;;;;8.43;7.47;;;;;;;;;;10468854;28;20250;-79
2023/09/13 18:15:02;;;;;;;8.05;6.20;;;;;;;;;;10439451;28;20276;-79
2023/09/13 18:20:24;;;;;;;9.13;5.88;;;;;;;;;;10469528;28;20242;-80
2023/09/13 18:25:46;;;;;;;6.32;4.95;;;;;;;;;;10442205;28;20268;-80
2023/09/13 18:31:08;;;;;;;6.60;4.47;;;;;;;;;;10466660;28;20205;-79
2023/09/13 18:36:30;;;;;;;5.38;3.50;;;;;;;;;;10454663;28;20220;-80
2023/09/13 18:41:52;;;;;;;3.33;2.75;;;20.30;1.00;;;;;;10436670;28;20247;-79
2023/09/13 18:47:14;;;;;;;2.08;1.88;;;20.00;99.90;;;;;;10410391;28;20232;-79
2023/09/13 18:52:35;;;;;;;1.80;1.60;;;19.60;99.90;;;;;;10432520;28;20279;-79
2023/09/13 18:57:57;;;;;;;1.75;1.60;;;19.40;99.90;;;;;;10437463;28;20262;-80
2023/09/13 19:03:18;;;;;;;4.82;1.50;;;19.30;99.90;;;;;;10472879;28;20232;-79
2023/09/13 19:08:45;;;;;;;2.33;1.55;;;;;;;;;;10465111;28;20234;-79
2023/09/13 19:14:07;;;;;;;2.58;1.40;;;19.20;1.00;;;;;;10438909;28;20220;-79
2023/09/13 19:19:28;;;;;;;2.53;1.70;;;19.10;99.90;;;;;;10439037;28;20204;-79
2023/09/13 19:24:50;;;;;;;1.60;1.20;;;19.20;99.90;;;;;;10437021;28;20415;-79
2023/09/13 19:30:17;;;;;;;2.05;1.70;;;19.20;1.00;;;;;;10404932;28;20207;-78
2023/09/13 19:35:39;;;;;;;2.10;1.83;;;19.20;1.00;;;;;;10401729;28;20287;-78
2023/09/13 19:41:01;;;;;;;2.75;2.05;;;19.10;1.00;;;;;;10436599;28;20224;-80
2023/09/13 19:46:22;;;;;;;3.15;2.00;;;19.10;1.00;;;;;;10432683;28;20229;-80
2023/09/13 19:51:44;;;;;;;3.40;2.55;;;19.10;99.90;;;;;;10410603;28;20221;-80
2023/09/13 19:57:07;;;;;;;2.88;2.30;;;19.10;1.00;;;;;;10457726;28;20201;-80
2023/09/13 20:02:28;;;;;;;4.05;2.40;;;19.10;1.00;;;;;;10465082;28;20236;-77
2023/09/13 20:07:51;;;;;;;2.85;2.30;;;19.00;1.00;;;;;;10436384;28;20375;-79
2023/09/13 20:13:14;;;;;;;4.28;2.53;;;19.00;1.00;;;;;;10449589;28;20212;-79
2023/09/13 20:18:35;;;;;;;3.55;2.42;;;19.00;1.00;;;;;;10470202;28;20220;-78
2023/09/13 20:23:57;;;;;;;3.35;2.10;;;19.00;1.00;;;;;;10447662;28;20243;-80
2023/09/13 20:29:24;;;;;;;4.95;3.10;;;19.00;99.90;;;;;;10396792;28;20207;-79
2023/09/13 20:34:54;;;;;;;2.75;2.40;;;18.90;1.00;;;;;;10407325;28;20539;-79
2023/09/13 20:40:16;;;;;;;6.22;2.25;;;18.90;1.00;;;;;;10440451;28;20220;-79
2023/09/13 20:45:38;;;;;;;2.60;2.28;;;18.90;1.00;;;;;;10408464;28;20535;-79
2023/09/13 20:51:03;;;;;;;3.15;2.50;;;18.90;1.00;;;;;;10422668;28;20460;-80
2023/09/13 20:56:24;;;;;;;2.70;2.20;;;18.90;1.00;;;;;;10454890;28;20212;-79
2023/09/13 21:01:46;;;;;;;3.03;2.50;;;19.00;1.00;;;;;;10435408;28;20232;-79
2023/09/13 21:07:07;;;;;;;2.58;2.05;;;18.90;1.00;;;;;;10436180;28;20192;-79
2023/09/13 21:12:29;;;;;;;4.75;1.73;;;18.90;1.00;;;;;;10454109;28;20584;-80
2023/09/13 21:17:50;;;;;;;3.55;2.00;;;18.90;1.00;;;;;;10462604;28;20199;-79
2023/09/13 21:23:12;;;;;;;2.92;2.30;;;18.90;1.00;;;;;;10476538;28;20239;-80
2023/09/13 21:28:34;;;;;;;2.15;1.95;;;18.80;1.00;;;;;;10420615;28;20268;-79
2023/09/13 21:33:56;;;;;;;4.50;2.10;;;18.70;1.00;;;;;;10414806;28;20192;-80
2023/09/13 21:39:17;;;;;;;5.07;2.53;;;18.60;1.00;;;;;;10428404;28;20192;-79
2023/09/13 21:44:39;;;;;;;3.83;1.77;;;18.60;1.00;;;;;;10432371;28;20300;-80
2023/09/13 21:50:01;;;;;;;2.30;1.95;;;18.70;1.00;;;;;;10429543;28;20193;-80
2023/09/13 21:55:22;;;;;;;2.83;1.88;;;18.70;99.90;;;;;;10463277;28;20196;-80
2023/09/13 22:00:48;;;;;;;3.88;1.80;;;18.70;94.50;;;;;;10459394;28;20256;-80
2023/09/13 22:06:09;;;;;;;1.50;1.40;;;18.70;99.90;;;;;;10475318;28;20205;-80
2023/09/13 22:11:30;;;;;;;1.60;1.50;;;18.80;99.90;;;;;;10442968;28;20487;-79
2023/09/13 22:16:52;;;;;;;3.17;1.70;;;18.80;1.00;;;;;;10485442;28;20472;-79
2023/09/13 22:22:13;;;;;;;3.35;1.67;;;18.90;1.00;;;;;;10427792;28;20223;-80
2023/09/13 22:27:36;;;;;;;2.58;1.80;;;18.90;1.00;;;;;;10429859;28;20204;-79
2023/09/13 22:32:57;;;;;;;3.25;1.73;;;18.90;1.00;;;;;;10422283;28;20208;-80
2023/09/13 22:38:20;;;;;;;1.83;1.60;;;18.90;99.90;;;;;;10468820;28;20268;-79
2023/09/13 22:43:45;;;;;;;2.58;1.50;;;18.90;1.00;;;;;;10429483;28;20220;-80
2023/09/13 22:49:06;;;;;;;1.73;1.60;;;18.90;1.00;;;;;;10456944;28;20382;-80
2023/09/13 22:54:28;;;;;;;1.63;1.48;;;19.00;99.90;;;;;;10468711;28;20436;-80
2023/09/13 22:59:49;;;;;;;1.65;1.52;;;19.00;99.90;;;;;;10467895;28;20228;-79
2023/09/13 23:05:11;;;;;;;1.55;1.20;;;19.00;99.90;;;;;;10439402;28;20250;-80
2023/09/13 23:10:32;;;;;;;1.88;1.42;;;19.00;1.00;;;;;;10472581;28;20235;-80
2023/09/13 23:16:03;;;;;;;2.13;1.58;;;19.00;1.00;;;;;;10435294;28;20193;-80
2023/09/13 23:21:25;;;;;;;1.70;1.60;;;19.10;1.00;;;;;;10417091;28;20224;-80
2023/09/13 23:26:50;;;;;;;2.42;1.63;;;19.00;99.90;;;;;;10414300;28;20194;-80
2023/09/13 23:32:11;;;;;;;2.30;1.48;;;19.10;1.00;;;;;;10410527;28;20196;-80
2023/09/13 23:37:33;;;;;;;1.48;1.38;;;19.00;99.90;;;;;;10439627;28;20272;-80
2023/09/13 23:42:55;;;;;;;2.47;1.48;;;19.00;19.70;;;;;;10424241;28;20232;-80
2023/09/13 23:48:16;;;;;;;2.78;1.45;;;19.00;1.00;;;;;;10427581;28;20218;-80
